Catàleg de serveis del Meteocat

Dades de l'estació automàtica l'Ametlla de Mar

?
?
Resum diari 22:30 TU
Dades diàries de l'estació meteorològica
Temperatura mitjana 11.5 °C
Temperatura màxima 16.1 °C 11:02 TU
Temperatura mínima 8.6 °C 21:49 TU
Humitat relativa mitjana 88%
Precipitació acumulada 2.8 mm
Ratxa màxima del vent (2 m) 15.5 km/h - 307º 16:45 TU
Irradiació solar global 6.1 MJ/m2

El tram horari està expressat en Temps Universal (TU). Cal sumar una hora en horari d'hivern i dues en horari d'estiu per passar a l'hora oficial.

l'Ametlla de Mar

Metadades estació meteorol´gica
Municipi L'Ametlla de Mar
Comarca Baix Ebre
Altitud 93 m
Data alta 29.08.1995
Estat actual Operativa
Dades de període
Període
TU
TM
°C
TX
°C
TN
°C
HRM
%
PPT
mm
VVM (2 m)
km/h
DVM (2 m)
graus
VVX (2 m)
km/h
RS
W/m2
00:00 - 00:30 10.2 10.4 9.9 90 0.0 0.7 312 3.6 0
00:30 - 01:00 9.9 9.9 9.7 91 0.0 0.7 311 4.7 0
01:00 - 01:30 9.8 9.9 9.6 92 0.0 1.4 306 5.0 0
01:30 - 02:00 9.8 10.1 9.6 90 0.0 0.4 256 4.0 0
02:00 - 02:30 9.5 9.7 9.4 91 0.0 0.7 303 6.5 0
02:30 - 03:00 9.3 9.7 8.9 91 0.0 0.7 308 5.0 0
03:00 - 03:30 9.1 9.2 8.9 93 0.0 2.2 293 6.8 0
03:30 - 04:00 9.6 9.9 9.2 92 0.0 2.2 294 6.5 0
04:00 - 04:30 10.0 10.2 9.8 89 0.0 2.5 284 6.8 0
04:30 - 05:00 10.2 10.3 10.1 89 0.0 1.8 272 6.8 0
05:00 - 05:30 10.1 10.2 10.1 90 0.0 0.7 282 4.3 0
05:30 - 06:00 10.0 10.1 9.7 90 0.0 2.2 269 7.9 0
06:00 - 06:30 9.8 9.9 9.7 92 0.0 1.8 297 5.8 0
06:30 - 07:00 9.9 10.0 9.8 92 0.0 2.2 269 6.8 2
07:00 - 07:30 10.1 10.2 9.9 91 0.0 1.1 274 3.6 16
07:30 - 08:00 10.4 10.7 10.2 90 0.0 1.4 312 6.1 27
08:00 - 08:30 11.1 11.5 10.8 87 0.0 1.4 317 5.8 68
08:30 - 09:00 11.8 11.9 11.6 85 0.0 1.8 293 5.8 75
09:00 - 09:30 12.2 12.4 11.8 87 0.0 0.7 234 3.6 110
09:30 - 10:00 12.7 13.0 12.4 85 0.0 0.4 231 3.2 127
10:00 - 10:30 13.8 14.8 13.1 80 0.0 2.2 108 6.8 293
10:30 - 11:00 15.1 16.0 14.6 73 0.0 4.0 103 9.7 493
11:00 - 11:30 15.3 16.1 14.8 72 0.0 4.7 118 11.9 359
11:30 - 12:00 15.1 15.5 14.8 74 0.0 4.3 95 10.1 362
12:00 - 12:30 15.0 15.5 14.8 75 0.0 5.4 98 14.0 231
12:30 - 13:00 15.1 15.8 14.8 77 0.0 6.1 101 11.5 327
13:00 - 13:30 15.4 15.9 15.1 77 0.0 6.5 95 13.0 281
13:30 - 14:00 15.0 15.1 14.9 80 0.0 5.8 88 13.3 149
14:00 - 14:30 14.9 15.2 14.8 83 0.0 6.5 88 13.0 145
14:30 - 15:00 14.8 14.9 14.8 84 0.0 7.2 79 14.8 143
15:00 - 15:30 14.8 14.9 14.6 85 0.0 6.1 78 13.7 86
15:30 - 16:00 14.6 14.7 14.5 85 0.0 5.0 98 12.2 71
16:00 - 16:30 14.3 14.5 14.0 86 0.0 5.0 86 12.6 13
16:30 - 17:00 12.9 14.0 11.2 86 0.3 4.7 302 15.5 0
17:00 - 17:30 10.9 11.1 10.7 91 2.2 3.6 325 13.0 0
17:30 - 18:00 10.7 10.8 10.6 93 0.3 3.6 312 11.5 0
18:00 - 18:30 10.6 10.8 10.5 93 0.0 4.0 283 12.2 0
18:30 - 19:00 10.5 10.7 10.4 94 0.0 3.2 315 9.7 0
19:00 - 19:30 10.4 10.6 10.2 93 0.0 3.2 282 7.9 0
19:30 - 20:00 10.1 10.2 10.0 95 0.0 3.2 268 9.0 0
20:00 - 20:30 9.9 10.0 9.7 94 0.0 4.0 275 8.6 0
20:30 - 21:00 9.5 9.7 9.3 94 0.0 4.0 275 9.7 0
21:00 - 21:30 9.0 9.3 8.9 95 0.0 3.2 277 8.6 0
21:30 - 22:00 8.7 8.8 8.6 96 0.0 1.8 290 6.1 0
22:00 - 22:30 9.0 9.1 8.7 95 0.0 3.6 275 6.5 0
22:30 - 23:00 9.0 9.1 8.9 93 0.0 2.5 291 7.9 0

Les dades en taronja només han passat un control de qualitat automàtic. Resta pendent la seva validació definitiva.